Decoded Metar for KPUW (PULLMAN/MOSCOW in WA, USA) (IATA:PUW) | Meteo·Mobile Aviation Weather
aviador You're here:

KPUW Decoded Metar

PULLMAN/MOSCOW in WA, USA
Report Time2018-10-19 19:53:00
UTC Time2018-10-19 20:22:25
Flight Rules vfr VFR
Wind140° at 04 kt
W.Decomp.*RWY 06: 1.7 kt HW 3.6 kt RCW
W.Rank140° ranks 14
Current wind is below 140° avg. (7.1)
Visibility9999 m
Phenomena:N/A
Clouds:N/A
Expected CloudBase > 6,800 ft AGL from Temp-Dew spread
CeilingNone
Temp19°C (ISA +9)
Dew Point02°C (32% RH)
AAT15.9°C
QNH1028 hPa
Density Alt3,189 ft
Elevation2,536 ft
Report Wrong Elevation
Raw Report
KPUW 191953Z AUTO 14004KT 8SM CLR 19/02 A3037 RMK AO2 SLP288
T01890022=

Extra information for KPUW:More info

Metar Taf Metar & Taf Last 4 Metars F.Rules Stats Wind Profile Meteogram Temp Stats Airport Information Weather charts Add Link Nearby VenuesMetar ALERT Operation Metar Decoded Social comments

AIRNAV info for KPUW